Tarporley, United Kingdom
Current Conditions -  °F | °C
As of 12:20 PM on Thursday 18 Dec 2014 (Local Time) from EGNR Reporting Station
Scattered Clouds Scattered Clouds  
Wind Chill: 14°   Ceiling: Unl
Heat Index: 14°   Visibility: 6mi
Dew Point: 12°   Wind: 22mph
Humidity: 88%   Direction: 230°SW
Pressure: 29.62"   Gusts: NA
Location:  53.16°N, 2.67°W
Report Text: EGNR 181220Z 23019KT 9999 8000SW FEW012 SCT020 14/12 Q1003
Loading
Personal Weather Stations






























Interactive Weather Map New forecast layout! Learn more

10-Day Weather Forecast

Advertisements
Track Severe Weather on mobile